• Join FlightAware (Why Join?)
  • Login
  • US Flag 
04:29AM EDT


 

Airport Tracker/Info


-or-


 

Live Flight TrackerFlight Track Log ✈ UAL1056 ✈ 01-Aug-2013 ✈ MMUN / CUN - KIAH

Flight Track Log - Related Links

Times and Time Zones

All times are in EDT time to prevent confusion due to time zone crossing. See the UAL1056 flight status page for this flight to view local times or setup timezone preferences in your user account.

Time Position Orientation Groundspeed Altitude Reporting Facility
EDT Latitude Longitude Course Direction KTS MPH feet Rate Location/Type
05:44PM 21.0250 -86.8600 124° Southeast 177 204 800  Level FlightAware
05:44PM 21.0150 -86.8440 124° Southeast 189 217 1,400 1,800 Climbing FlightAware
05:45PM 21.0040 -86.8270 125° Southeast 200 230 2,100 2,460 Climbing FlightAware
05:45PM 20.9920 -86.8080 124° Southeast 213 245 3,100 2,520 Climbing FlightAware
05:45PM 20.9850 -86.7890 112° Southeast 221 254 3,900 2,700 Climbing FlightAware
05:46PM 21.0030 -86.7580 58° Northeast 251 289 5,100 2,640 Climbing FlightAware
05:46PM 21.0150 -86.7550 13° North 262 302 5,400 1,740 Climbing FlightAware
05:46PM 21.0220 -86.7540 North 268 308 5,600 2,820 Climbing FlightAware
05:47PM 21.0590 -86.7610 350° North 279 321 7,000 2,880 Climbing FlightAware
05:47PM 21.0900 -86.7670 350° North 286 329 8,200 3,000 Climbing FlightAware
05:47PM 21.1120 -86.7710 350° North 291 335 9,000 3,060 Climbing FlightAware
05:48PM 21.1580 -86.7770 353° North 299 344 10,700 1,920 Climbing FlightAware
05:48PM 21.2120 -86.7840 353° North 344 396 11,300 1,680 Climbing FlightAware
05:49PM 21.2740 -86.7920 353° North 364 419 12,800 2,460 Climbing FlightAware
05:50PM 21.3330 -86.8000 353° North 372 428 14,300 2,400 Climbing FlightAware
05:50PM 21.3990 -86.8090 353° North 382 440 15,700 2,220 Climbing FlightAware
05:51PM 21.4750 -86.8190 353° North 391 450 17,300 2,040 Climbing FlightAware
05:52PM 21.5140 -86.8240 353° North 392 451 18,200 1,920 Climbing FlightAware
05:52PM 21.5800 -86.8330 353° North 400 460 19,500 2,100 Climbing FlightAware
05:53PM 21.6520 -86.8420 353° North 408 470 20,800 1,920 Climbing FlightAware
05:53PM 21.7190 -86.8520 352° North 409 471 21,900 1,800 Climbing FlightAware
05:54PM 21.7910 -86.8610 353° North 419 482 23,000 1,740 Climbing FlightAware
05:54PM 21.8520 -86.8690 353° North 423 487 23,900 1,620 Climbing FlightAware
05:55PM 21.9210 -86.8790 352° North 428 493 24,900 1,620 Climbing FlightAware
05:56PM 21.9830 -86.8870 353° North 432 497 25,800 1,500 Climbing FlightAware
05:56PM 22.0790 -86.9000 353° North 439 505 26,900 960 Climbing FlightAware
05:57PM 22.1270 -86.9060 353° North 443 510 27,000 60 Climbing FlightAware
05:57PM 22.1910 -86.9150 353° North 443 510 27,000  Level FlightAware
05:58PM 22.2710 -86.9260 353° North 442 509 27,000  Level FlightAware
05:59PM 22.3460 -86.9360 353° North 441 507 27,000 60 Level FlightAware
05:59PM 22.4200 -86.9460 353° North 440 506 27,100 540 Climbing FlightAware
06:00PM 22.4750 -86.9530 353° North 442 509 27,700 1,200 Climbing FlightAware
06:00PM 22.5600 -86.9650 353° North 442 509 28,500 1,260 Climbing FlightAware
06:01PM 22.6450 -86.9760 353° North 452 520 29,300 1,080 Climbing FlightAware
06:02PM 22.7220 -86.9870 352° North 458 527 30,000 1,260 Climbing FlightAware
06:02PM 22.8020 -86.9980 353° North 457 526 30,900 1,380 Climbing FlightAware
06:03PM 22.8990 -87.0110 353° North 456 525 31,900 1,200 Climbing FlightAware
06:04PM 22.9770 -87.0210 353° North 456 525 32,600 1,200 Climbing FlightAware
06:04PM 23.0400 -87.0370 347° North 456 525 33,300 1,200 Climbing FlightAware
06:05PM 23.0850 -87.0800 319° Northwest 457 526 33,800 1,080 Climbing FlightAware
06:05PM 23.1220 -87.1510 300° West 458 527 34,500 1,020 Climbing FlightAware
06:06PM 23.1570 -87.2220 298° West 458 527 35,100 960 Climbing FlightAware
06:06PM 23.1970 -87.2990 299° West 456 525 35,700 600 Climbing FlightAware
06:07PM 23.2430 -87.3920 298° West 456 525 36,000 180 Climbing FlightAware
06:08PM 23.2750 -87.4550 299° West 455 524 36,000  Level FlightAware
06:08PM 23.3120 -87.5270 299° West 455 524 36,000  Level FlightAware
06:09PM 23.3490 -87.6010 299° West 456 525 36,000  Level FlightAware
06:10PM 23.3870 -87.6750 299° West 456 525 36,000  Level FlightAware
06:10PM 23.4190 -87.7390 299° West 456 525 36,000  Level FlightAware
06:11PM 23.4550 -87.8100 299° West 454 522 36,000  Level FlightAware
06:11PM 23.4810 -87.8600 300° West 454 522 36,000  Level FlightAware
06:12PM 23.5200 -87.9350 300° West 452 520 36,000  Level FlightAware
06:12PM 23.5600 -88.0110 300° West 452 520 36,000  Level FlightAware
06:13PM 23.5940 -88.0760 300° West 452 520 36,000  Level FlightAware
06:13PM 23.6340 -88.1560 299° West 456 525 36,000  Level FlightAware
06:14PM 23.6640 -88.2150 299° West 457 526 36,000  Level FlightAware
06:15PM 23.7030 -88.2920 299° West 460 529 36,000  Level FlightAware
06:15PM 23.7420 -88.3670 300° West 460 529 36,000  Level FlightAware
06:16PM 23.7740 -88.4290 299° West 461 531 36,000  Level FlightAware
06:16PM 23.8030 -88.4880 298° West 461 531 36,000  Level FlightAware
06:17PM 23.8350 -88.5510 299° West 461 531 36,000  Level FlightAware
06:18PM 23.8690 -88.6180 299° West 461 531 36,000  Level FlightAware
06:18PM 23.9010 -88.6810 299° West 461 531 36,000  Level FlightAware
06:19PM 23.9330 -88.7450 299° West 461 531 36,000  Level FlightAware
06:20PM 23.9780 -88.8330 299° West 461 531 36,000  Level FlightAware
06:20PM 24.0100 -88.8960 299° West 461 531 36,000  Level FlightAware
06:21PM 24.0420 -88.9600 299° West 461 531 36,000  Level FlightAware
06:22PM 24.0740 -89.0230 299° West 461 531 36,000  Level FlightAware
06:22PM 24.1070 -89.0870 299° West 461 531 36,000  Level FlightAware
06:23PM 24.1380 -89.1490 299° West 461 531 36,000  Level FlightAware
06:23PM 24.1720 -89.2150 299° West 461 531 36,000  Level FlightAware
06:24PM 24.2030 -89.2780 298° West 461 531 36,000  Level FlightAware
06:25PM 24.2350 -89.3410 299° West 461 531 36,000  Level FlightAware
06:25PM 24.2670 -89.4030 300° West 461 531 36,000  Level FlightAware
06:26PM 24.2980 -89.4660 298° West 461 531 36,000  Level FlightAware
06:27PM 24.4750 -89.8150 299° West 457 526 36,000  Level FlightAware
06:28PM 24.5110 -89.8780 302° West 457 526 36,000  Level FlightAware
06:28PM 24.5450 -89.9390 302° West 457 526 36,000  Level FlightAware
06:29PM 24.5790 -89.9990 302° West 457 526 36,000  Level FlightAware
06:30PM 24.6140 -90.0590 303° West 457 526 36,000  Level FlightAware
06:30PM 24.6480 -90.1200 302° West 457 526 36,000  Level FlightAware
06:31PM 24.6940 -90.2000 302° West 457 526 36,000  Level FlightAware
06:32PM 24.7280 -90.2610 302° West 457 526 36,000  Level FlightAware
06:32PM 24.7620 -90.3210 302° West 457 526 36,000  Level FlightAware
06:33PM 24.7970 -90.3810 303° West 457 526 36,000  Level FlightAware
06:33PM 24.8320 -90.4440 301° West 457 526 36,000  Level FlightAware
06:34PM 24.8660 -90.5040 302° West 457 526 36,000  Level FlightAware
06:35PM 24.9000 -90.5650 302° West 457 526 36,000  Level FlightAware
06:35PM 24.9350 -90.6250 303° West 457 526 36,000  Level FlightAware
06:36PM 24.9690 -90.6860 302° West 457 526 36,000  Level FlightAware
06:36PM 25.0030 -90.7460 302° West 457 526 36,000  Level FlightAware
06:37PM 25.0370 -90.8070 302° West 457 526 36,000  Level FlightAware
06:40PM 25.2870 -91.0238 322° Northwest  Level Estimated
06:41PM 25.3843 -91.1085 322° Northwest  Level Estimated
06:42PM 25.4815 -91.1933 322° Northwest  Level Estimated
06:43PM 25.5787 -91.2783 322° Northwest  Level Estimated
06:44PM 25.6759 -91.3633 322° Northwest  Level Estimated
06:45PM 25.7730 -91.4486 322° Northwest  Level Estimated
06:46PM 25.8700 -91.5340 322° Northwest  Level Estimated
06:47PM 25.9670 -91.6195 322° Northwest  Level Estimated
06:48PM 26.0640 -91.7051 322° Northwest  Level Estimated
06:49PM 26.1609 -91.7910 322° Northwest  Level Estimated
06:49PM 26.6511 -91.5297 321° Northwest 286 329 36,000  Level Houston Center
06:50PM 26.2577 -91.8769 321° Northwest  Level Estimated
06:50PM 26.7672 -91.6222 325° Northwest 405 466 35,900  Level Houston Center
06:51PM 26.3545 -91.9630 321° Northwest  Level Estimated
06:52PM 26.4513 -92.0492 321° Northwest  Level Estimated
06:53PM 26.5480 -92.1356 321° Northwest  Level Estimated
06:54PM 26.6446 -92.2222 321° Northwest  Level Estimated
06:55PM 26.7412 -92.3088 321° Northwest  Level Estimated
06:57PM 27.3884 -92.1216 325° Northwest 433 498 36,000  Level FlightAware ADS-B
06:57PM 27.4531 -92.1741 324° Northwest 433 498 36,000 -60 Level FlightAware ADS-B
06:58PM 27.5606 -92.2619 324° Northwest 431 496 35,900  Descending Houston Center
07:00PM 27.6578 -92.3419 324° Northwest 432 497 36,000  Climbing Houston Center
07:01PM 27.7547 -92.4203 324° Northwest 429 494 36,000  Level Houston Center
07:02PM 27.8706 -92.5142 324° Northwest 429 494 36,000  Level Houston Center
07:03PM 27.9661 -92.5958 323° Northwest 429 494 36,000 -60 Level Houston Center
07:04PM 28.0619 -92.6739 324° Northwest 426 490 35,900  Descending Houston Center
07:05PM 28.1578 -92.7539 324° Northwest 425 489 36,000  Climbing Houston Center
07:06PM 28.2550 -92.8328 324° Northwest 428 493 36,000  Level Houston Center
07:12PM 28.8583 -93.3349 324° Northwest 434 499 36,000 -60 Level FlightAware ADS-B
07:12PM 28.9068 -93.3757 324° Northwest 434 499 35,900 -1,380 Descending FlightAware ADS-B
07:13PM 28.9568 -93.4177 324° Northwest 435 501 34,600 -2,760 Descending FlightAware ADS-B
07:13PM 29.0074 -93.4604 324° Northwest 437 503 33,100 -3,060 Descending FlightAware ADS-B
07:14PM 29.0566 -93.5018 324° Northwest 445 512 31,500 -2,760 Descending FlightAware ADS-B
07:14PM 29.1073 -93.5447 324° Northwest 440 506 30,300 -2,220 Descending FlightAware ADS-B
07:15PM 29.1562 -93.5861 324° Northwest 433 498 29,300 -2,100 Descending FlightAware ADS-B
07:15PM 29.2052 -93.6273 324° Northwest 423 487 28,200 -2,160 Descending FlightAware ADS-B
07:16PM 29.2372 -93.6548 323° Northwest 418 481 27,500 -2,220 Descending FlightAware ADS-B
07:16PM 29.2516 -93.6695 318° Northwest 417 480 27,100 -3,240 Descending FlightAware ADS-B
07:16PM 29.2721 -93.6964 311° West 423 487 26,100 -3,960 Descending FlightAware ADS-B
07:16PM 29.2830 -93.7153 303° West 431 496 25,400 -4,200 Descending FlightAware ADS-B
07:16PM 29.2859 -93.7215 298° West 434 499 25,200 -3,000 Descending FlightAware ADS-B
07:17PM 29.3124 -93.7894 294° West 439 505 23,600 -2,820 Descending FlightAware ADS-B
07:17PM 29.3373 -93.8527 294° West 432 497 22,300 -2,460 Descending FlightAware ADS-B
07:18PM 29.3628 -93.9168 295° West 422 486 21,100 -2,280 Descending FlightAware ADS-B
07:18PM 29.3873 -93.9776 295° West 417 480 20,000 -2,340 Descending FlightAware ADS-B
07:19PM 29.4116 -94.0381 295° West 409 471 18,800 -3,060 Descending FlightAware ADS-B
07:19PM 29.4358 -94.0988 295° West 422 486 16,900 -3,120 Descending FlightAware ADS-B
07:20PM 29.4604 -94.1605 295° West 413 475 15,600 -2,640 Descending FlightAware ADS-B
07:20PM 29.4852 -94.2232 294° West 408 470 14,200 -2,460 Descending FlightAware ADS-B
07:21PM 29.5087 -94.2823 295° West 401 461 13,100 -1,320 Descending FlightAware ADS-B
07:21PM 29.5312 -94.3390 295° West 364 419 12,900 -780 Descending FlightAware ADS-B
07:22PM 29.5481 -94.3798 295° West 354 407 12,400 -1,500 Descending FlightAware ADS-B
07:22PM 29.5700 -94.4297 297° West 343 395 11,600 -1,620 Descending FlightAware ADS-B
07:23PM 29.5914 -94.4792 296° West 334 384 10,800 -1,260 Descending FlightAware ADS-B
07:23PM 29.6113 -94.5264 296° West 318 366 10,300 -1,020 Descending FlightAware ADS-B
07:24PM 29.6196 -94.5457 296° West 310 357 10,100 -900 Descending FlightAware ADS-B
07:24PM 29.6261 -94.5580 301° West 305 351 10,000 -900 Descending FlightAware ADS-B
07:24PM 29.6300 -94.5648 303° West 301 346 9,900 -1,020 Descending FlightAware ADS-B
07:24PM 29.6354 -94.5729 307° West 300 345 9,800 -960 Descending FlightAware ADS-B
07:24PM 29.6406 -94.5801 310° West 297 342 9,700 -960 Descending FlightAware ADS-B
07:24PM 29.6476 -94.5888 313° West 294 338 9,600 -1,140 Descending FlightAware ADS-B
07:24PM 29.6616 -94.6060 313° West 289 333 9,300 -1,380 Descending FlightAware ADS-B
07:25PM 29.6756 -94.6230 313° West 288 331 8,900 -1,380 Descending FlightAware ADS-B
07:25PM 29.6894 -94.6399 313° West 287 330 8,600 -1,440 Descending FlightAware ADS-B
07:25PM 29.7028 -94.6565 313° West 286 329 8,200 -1,620 Descending FlightAware ADS-B
07:25PM 29.7166 -94.6735 313° West 286 329 7,800 -1,620 Descending FlightAware ADS-B
07:26PM 29.7303 -94.6904 313° West 286 329 7,400 -1,440 Descending FlightAware ADS-B
07:26PM 29.7439 -94.7073 313° West 286 329 7,100 -1,380 Descending FlightAware ADS-B
07:26PM 29.7576 -94.7242 313° West 284 327 6,700 -1,380 Descending FlightAware ADS-B
07:26PM 29.7711 -94.7409 313° West 283 326 6,400 -1,380 Descending FlightAware ADS-B
07:27PM 29.7981 -94.7743 313° West 280 322 5,700 -1,380 Descending FlightAware ADS-B
07:27PM 29.8112 -94.7905 313° West 278 320 5,400 -1,440 Descending FlightAware ADS-B
07:27PM 29.8243 -94.8068 313° West 279 321 5,000 -1,500 Descending FlightAware ADS-B
07:28PM 29.8396 -94.8261 310° West 279 321 4,600 -1,440 Descending FlightAware ADS-B
07:28PM 29.8424 -94.8300 310° West 279 321 4,500 -900 Descending FlightAware ADS-B
07:28PM 29.8452 -94.8344 306° West 279 321 4,500 -1,500 Level FlightAware ADS-B
07:28PM 29.8513 -94.8451 302° West 280 322 4,200 -1,620 Descending FlightAware ADS-B
07:28PM 29.8556 -94.8544 298° West 280 322 4,100 -1,320 Descending FlightAware ADS-B
07:28PM 29.8644 -94.8748 296° West 280 322 3,700 -1,380 Descending FlightAware ADS-B
07:29PM 29.8730 -94.8949 296° West 278 320 3,400 -1,200 Descending FlightAware ADS-B
07:29PM 29.8816 -94.9148 296° West 274 315 3,100 -720 Descending FlightAware ADS-B
07:29PM 29.8931 -94.9409 297° West 272 313 3,000 -180 Descending FlightAware ADS-B
07:29PM 29.9021 -94.9617 297° West 272 313 3,000 -360 Level FlightAware ADS-B
07:30PM 29.9243 -95.0126 297° West 258 297 2,700 -480 Descending FlightAware ADS-B
07:30PM 29.9327 -95.0320 297° West 248 285 2,600 -600 Descending FlightAware ADS-B
07:31PM 29.9404 -95.0497 297° West 240 276 2,400 -600 Descending FlightAware ADS-B
07:31PM 29.9476 -95.0665 296° West 234 269 2,300 -480 Descending FlightAware ADS-B
07:31PM 29.9594 -95.0934 297° West 232 267 2,100 -480 Descending FlightAware ADS-B
07:32PM 29.9667 -95.1101 297° West 235 270 2,000 -180 Descending FlightAware ADS-B
07:32PM 29.9757 -95.1323 292° West 230 265 2,000  Level FlightAware ADS-B
07:32PM 29.9770 -95.1381 285° West 230 265 2,000  Level FlightAware ADS-B
07:32PM 29.9776 -95.1441 277° West 229 264 2,000  Level FlightAware ADS-B
07:32PM 29.9777 -95.1488 271° West 229 264 2,000  Level FlightAware ADS-B
07:33PM 29.9776 -95.1860 270° West 220 253 2,000 -600 Level FlightAware ADS-B
07:33PM 29.9777 -95.2095 270° West 216 249 1,500 -1,140 Descending FlightAware ADS-B
07:33PM 29.9776 -95.2273 270° West 201 231 1,300 -780 Descending FlightAware ADS-B
07:33PM 29.9776 -95.2428 270° West 184 212 1,100 -1,020 Descending FlightAware ADS-B
07:34PM 29.9776 -95.2575 270° West 170 196 800 -900 Descending FlightAware ADS-B
07:34PM 29.9777 -95.2677 271° West 163 188 700 -600 Descending FlightAware ADS-B
07:34PM 29.9777 -95.2753 270° West 160 184 600 -780 Descending FlightAware ADS-B
07:34PM 29.9777 -95.2884 270° West 161 185 400 -780 Descending FlightAware ADS-B